sensor_id;sensor_type;location;lat;lon;timestamp;P1;durP1;ratioP1;P2;durP2;ratioP2
24567;SDS011;12731;52.182;8.716;2024-02-21T00:02:11;41.00;;;22.80;;
24567;SDS011;12731;52.182;8.716;2024-02-21T00:04:39;37.65;;;22.35;;
24567;SDS011;12731;52.182;8.716;2024-02-21T00:07:06;34.72;;;21.73;;
24567;SDS011;12731;52.182;8.716;2024-02-21T00:09:32;36.97;;;21.60;;
24567;SDS011;12731;52.182;8.716;2024-02-21T00:11:58;37.17;;;23.63;;
24567;SDS011;12731;52.182;8.716;2024-02-21T00:14:25;39.95;;;23.20;;
24567;SDS011;12731;52.182;8.716;2024-02-21T00:16:52;40.22;;;22.02;;
24567;SDS011;12731;52.182;8.716;2024-02-21T00:19:18;42.25;;;22.63;;
24567;SDS011;12731;52.182;8.716;2024-02-21T00:21:45;41.47;;;23.00;;
24567;SDS011;12731;52.182;8.716;2024-02-21T00:24:12;38.33;;;22.52;;
24567;SDS011;12731;52.182;8.716;2024-02-21T00:26:38;38.20;;;22.90;;
24567;SDS011;12731;52.182;8.716;2024-02-21T00:29:04;37.53;;;22.63;;
24567;SDS011;12731;52.182;8.716;2024-02-21T00:31:34;40.17;;;23.90;;
24567;SDS011;12731;52.182;8.716;2024-02-21T00:34:00;41.38;;;23.98;;
24567;SDS011;12731;52.182;8.716;2024-02-21T00:36:27;44.90;;;23.63;;
24567;SDS011;12731;52.182;8.716;2024-02-21T00:38:53;36.13;;;22.33;;
24567;SDS011;12731;52.182;8.716;2024-02-21T00:41:20;40.17;;;23.33;;
24567;SDS011;12731;52.182;8.716;2024-02-21T00:43:46;40.03;;;22.77;;
24567;SDS011;12731;52.182;8.716;2024-02-21T00:46:15;40.35;;;23.15;;
24567;SDS011;12731;52.182;8.716;2024-02-21T00:48:41;40.67;;;23.10;;
24567;SDS011;12731;52.182;8.716;2024-02-21T00:51:08;38.63;;;21.63;;
24567;SDS011;12731;52.182;8.716;2024-02-21T00:53:34;36.17;;;22.70;;
24567;SDS011;12731;52.182;8.716;2024-02-21T00:56:05;36.60;;;23.20;;
24567;SDS011;12731;52.182;8.716;2024-02-21T00:58:32;37.40;;;22.77;;
24567;SDS011;12731;52.182;8.716;2024-02-21T01:00:58;44.72;;;22.55;;
24567;SDS011;12731;52.182;8.716;2024-02-21T01:03:26;41.00;;;22.80;;
24567;SDS011;12731;52.182;8.716;2024-02-21T01:05:52;35.67;;;21.90;;
24567;SDS011;12731;52.182;8.716;2024-02-21T01:08:19;38.80;;;23.00;;
24567;SDS011;12731;52.182;8.716;2024-02-21T01:10:45;34.65;;;22.92;;
24567;SDS011;12731;52.182;8.716;2024-02-21T01:13:12;38.17;;;22.05;;
24567;SDS011;12731;52.182;8.716;2024-02-21T01:15:38;35.17;;;21.60;;
24567;SDS011;12731;52.182;8.716;2024-02-21T01:18:05;40.88;;;22.27;;
24567;SDS011;12731;52.182;8.716;2024-02-21T01:20:31;38.95;;;21.35;;
24567;SDS011;12731;52.182;8.716;2024-02-21T01:22:58;38.40;;;22.40;;
24567;SDS011;12731;52.182;8.716;2024-02-21T01:25:24;35.95;;;21.45;;
24567;SDS011;12731;52.182;8.716;2024-02-21T01:27:51;34.47;;;21.33;;
24567;SDS011;12731;52.182;8.716;2024-02-21T01:30:18;34.67;;;21.73;;
24567;SDS011;12731;52.182;8.716;2024-02-21T01:32:44;36.92;;;22.00;;
24567;SDS011;12731;52.182;8.716;2024-02-21T01:35:11;38.05;;;21.40;;
24567;SDS011;12731;52.182;8.716;2024-02-21T01:37:37;33.47;;;20.70;;
24567;SDS011;12731;52.182;8.716;2024-02-21T01:40:04;35.95;;;22.52;;
24567;SDS011;12731;52.182;8.716;2024-02-21T01:42:31;34.97;;;22.08;;
24567;SDS011;12731;52.182;8.716;2024-02-21T01:44:58;37.15;;;21.85;;
24567;SDS011;12731;52.182;8.716;2024-02-21T01:47:24;33.65;;;21.98;;
24567;SDS011;12731;52.182;8.716;2024-02-21T01:49:50;37.35;;;21.80;;
24567;SDS011;12731;52.182;8.716;2024-02-21T01:52:17;32.70;;;21.63;;
24567;SDS011;12731;52.182;8.716;2024-02-21T01:54:44;36.90;;;22.10;;
24567;SDS011;12731;52.182;8.716;2024-02-21T01:57:11;36.72;;;20.35;;
24567;SDS011;12731;52.182;8.716;2024-02-21T01:59:37;38.80;;;20.38;;
24567;SDS011;12731;52.182;8.716;2024-02-21T02:02:05;37.63;;;20.73;;
24567;SDS011;12731;52.182;8.716;2024-02-21T02:04:31;37.67;;;21.88;;
24567;SDS011;12731;52.182;8.716;2024-02-21T02:06:59;37.38;;;21.20;;
24567;SDS011;12731;52.182;8.716;2024-02-21T02:09:26;36.88;;;22.05;;
24567;SDS011;12731;52.182;8.716;2024-02-21T02:11:52;38.45;;;21.23;;
24567;SDS011;12731;52.182;8.716;2024-02-21T02:14:19;37.75;;;21.35;;
24567;SDS011;12731;52.182;8.716;2024-02-21T02:16:46;37.90;;;22.02;;
24567;SDS011;12731;52.182;8.716;2024-02-21T02:19:13;37.78;;;21.63;;
24567;SDS011;12731;52.182;8.716;2024-02-21T02:21:46;39.42;;;21.58;;
24567;SDS011;12731;52.182;8.716;2024-02-21T02:24:19;38.53;;;21.65;;
24567;SDS011;12731;52.182;8.716;2024-02-21T02:26:46;40.70;;;21.63;;
24567;SDS011;12731;52.182;8.716;2024-02-21T02:29:13;39.88;;;22.55;;
24567;SDS011;12731;52.182;8.716;2024-02-21T02:31:39;36.28;;;22.30;;
24567;SDS011;12731;52.182;8.716;2024-02-21T02:34:06;37.92;;;22.15;;
24567;SDS011;12731;52.182;8.716;2024-02-21T02:36:33;36.30;;;23.10;;
24567;SDS011;12731;52.182;8.716;2024-02-21T02:38:59;40.95;;;22.85;;
24567;SDS011;12731;52.182;8.716;2024-02-21T02:41:26;39.63;;;23.10;;
24567;SDS011;12731;52.182;8.716;2024-02-21T02:43:52;40.22;;;22.33;;
24567;SDS011;12731;52.182;8.716;2024-02-21T02:46:19;40.38;;;23.02;;
24567;SDS011;12731;52.182;8.716;2024-02-21T02:48:45;38.17;;;22.70;;
24567;SDS011;12731;52.182;8.716;2024-02-21T02:51:12;38.22;;;22.45;;
24567;SDS011;12731;52.182;8.716;2024-02-21T02:53:38;42.60;;;22.00;;
24567;SDS011;12731;52.182;8.716;2024-02-21T02:56:05;36.45;;;21.77;;
24567;SDS011;12731;52.182;8.716;2024-02-21T02:58:31;39.80;;;22.48;;
24567;SDS011;12731;52.182;8.716;2024-02-21T03:00:58;39.10;;;22.35;;
24567;SDS011;12731;52.182;8.716;2024-02-21T03:03:24;38.90;;;22.27;;
24567;SDS011;12731;52.182;8.716;2024-02-21T03:05:51;40.35;;;22.33;;
24567;SDS011;12731;52.182;8.716;2024-02-21T03:08:17;40.17;;;23.00;;
24567;SDS011;12731;52.182;8.716;2024-02-21T03:10:44;38.38;;;22.50;;
24567;SDS011;12731;52.182;8.716;2024-02-21T03:13:10;40.90;;;22.95;;
24567;SDS011;12731;52.182;8.716;2024-02-21T03:15:37;41.13;;;23.27;;
24567;SDS011;12731;52.182;8.716;2024-02-21T03:18:03;44.33;;;22.88;;
24567;SDS011;12731;52.182;8.716;2024-02-21T03:20:30;41.35;;;24.05;;
24567;SDS011;12731;52.182;8.716;2024-02-21T03:22:56;41.90;;;23.65;;
24567;SDS011;12731;52.182;8.716;2024-02-21T03:25:23;38.00;;;22.77;;
24567;SDS011;12731;52.182;8.716;2024-02-21T03:27:49;39.65;;;23.50;;
24567;SDS011;12731;52.182;8.716;2024-02-21T03:30:16;39.92;;;23.35;;
24567;SDS011;12731;52.182;8.716;2024-02-21T03:32:42;46.13;;;23.25;;
24567;SDS011;12731;52.182;8.716;2024-02-21T03:35:09;39.13;;;22.58;;
24567;SDS011;12731;52.182;8.716;2024-02-21T03:37:36;43.05;;;23.17;;
24567;SDS011;12731;52.182;8.716;2024-02-21T03:40:02;37.20;;;22.23;;
24567;SDS011;12731;52.182;8.716;2024-02-21T03:42:33;40.45;;;22.25;;
24567;SDS011;12731;52.182;8.716;2024-02-21T03:44:59;32.75;;;21.45;;
24567;SDS011;12731;52.182;8.716;2024-02-21T03:47:26;38.70;;;21.85;;
24567;SDS011;12731;52.182;8.716;2024-02-21T03:49:52;38.25;;;21.70;;
24567;SDS011;12731;52.182;8.716;2024-02-21T03:52:19;38.67;;;21.05;;
24567;SDS011;12731;52.182;8.716;2024-02-21T03:54:45;32.50;;;20.50;;
24567;SDS011;12731;52.182;8.716;2024-02-21T03:57:12;36.42;;;21.33;;
24567;SDS011;12731;52.182;8.716;2024-02-21T03:59:38;35.90;;;19.83;;
24567;SDS011;12731;52.182;8.716;2024-02-21T04:02:10;35.85;;;19.92;;
24567;SDS011;12731;52.182;8.716;2024-02-21T04:04:36;31.73;;;19.88;;
24567;SDS011;12731;52.182;8.716;2024-02-21T04:07:03;34.25;;;20.85;;
24567;SDS011;12731;52.182;8.716;2024-02-21T04:09:33;35.53;;;20.65;;
24567;SDS011;12731;52.182;8.716;2024-02-21T04:12:00;38.38;;;21.42;;
24567;SDS011;12731;52.182;8.716;2024-02-21T04:14:27;36.00;;;21.05;;
24567;SDS011;12731;52.182;8.716;2024-02-21T04:16:53;36.70;;;21.20;;
24567;SDS011;12731;52.182;8.716;2024-02-21T04:19:20;34.47;;;21.23;;
24567;SDS011;12731;52.182;8.716;2024-02-21T04:21:46;41.30;;;22.52;;
24567;SDS011;12731;52.182;8.716;2024-02-21T04:24:13;39.17;;;23.30;;
24567;SDS011;12731;52.182;8.716;2024-02-21T04:26:39;36.35;;;22.13;;
24567;SDS011;12731;52.182;8.716;2024-02-21T04:29:06;35.65;;;21.42;;
24567;SDS011;12731;52.182;8.716;2024-02-21T04:31:33;44.15;;;22.45;;
24567;SDS011;12731;52.182;8.716;2024-02-21T04:33:59;39.53;;;23.88;;
24567;SDS011;12731;52.182;8.716;2024-02-21T04:36:26;42.10;;;23.48;;
24567;SDS011;12731;52.182;8.716;2024-02-21T04:38:52;34.55;;;21.48;;
24567;SDS011;12731;52.182;8.716;2024-02-21T04:41:19;36.28;;;21.73;;
24567;SDS011;12731;52.182;8.716;2024-02-21T04:43:46;36.28;;;22.83;;
24567;SDS011;12731;52.182;8.716;2024-02-21T04:46:13;35.78;;;23.05;;
24567;SDS011;12731;52.182;8.716;2024-02-21T04:48:40;41.15;;;23.63;;
24567;SDS011;12731;52.182;8.716;2024-02-21T04:51:06;33.63;;;21.35;;
24567;SDS011;12731;52.182;8.716;2024-02-21T04:53:33;36.55;;;22.65;;
24567;SDS011;12731;52.182;8.716;2024-02-21T04:55:59;36.97;;;22.45;;
24567;SDS011;12731;52.182;8.716;2024-02-21T04:58:26;34.92;;;21.63;;
24567;SDS011;12731;52.182;8.716;2024-02-21T05:00:52;37.90;;;22.40;;
24567;SDS011;12731;52.182;8.716;2024-02-21T05:03:21;38.13;;;21.52;;
24567;SDS011;12731;52.182;8.716;2024-02-21T05:05:47;41.80;;;22.70;;
24567;SDS011;12731;52.182;8.716;2024-02-21T05:08:14;35.25;;;21.67;;
24567;SDS011;12731;52.182;8.716;2024-02-21T05:10:41;38.88;;;22.25;;
24567;SDS011;12731;52.182;8.716;2024-02-21T05:13:07;36.83;;;23.15;;
24567;SDS011;12731;52.182;8.716;2024-02-21T05:15:35;37.17;;;22.50;;
24567;SDS011;12731;52.182;8.716;2024-02-21T05:18:01;38.97;;;22.92;;
24567;SDS011;12731;52.182;8.716;2024-02-21T05:20:28;35.30;;;21.50;;
24567;SDS011;12731;52.182;8.716;2024-02-21T05:22:55;34.97;;;21.13;;
24567;SDS011;12731;52.182;8.716;2024-02-21T05:25:21;33.75;;;21.48;;
24567;SDS011;12731;52.182;8.716;2024-02-21T05:27:50;38.08;;;22.10;;
24567;SDS011;12731;52.182;8.716;2024-02-21T05:30:19;40.92;;;23.13;;
24567;SDS011;12731;52.182;8.716;2024-02-21T05:32:46;38.00;;;22.60;;
24567;SDS011;12731;52.182;8.716;2024-02-21T05:35:12;33.55;;;22.08;;
24567;SDS011;12731;52.182;8.716;2024-02-21T05:37:39;39.10;;;22.25;;
24567;SDS011;12731;52.182;8.716;2024-02-21T05:40:06;36.58;;;22.42;;
24567;SDS011;12731;52.182;8.716;2024-02-21T05:42:32;39.50;;;22.58;;
24567;SDS011;12731;52.182;8.716;2024-02-21T05:44:59;38.65;;;22.15;;
24567;SDS011;12731;52.182;8.716;2024-02-21T05:47:25;37.25;;;22.45;;
24567;SDS011;12731;52.182;8.716;2024-02-21T05:49:52;37.17;;;22.30;;
24567;SDS011;12731;52.182;8.716;2024-02-21T05:52:20;40.85;;;21.02;;
24567;SDS011;12731;52.182;8.716;2024-02-21T05:54:47;36.40;;;21.80;;
24567;SDS011;12731;52.182;8.716;2024-02-21T05:57:19;36.15;;;21.98;;
24567;SDS011;12731;52.182;8.716;2024-02-21T05:59:46;42.15;;;22.15;;
24567;SDS011;12731;52.182;8.716;2024-02-21T06:02:12;36.17;;;21.70;;
24567;SDS011;12731;52.182;8.716;2024-02-21T06:04:39;30.20;;;20.40;;
24567;SDS011;12731;52.182;8.716;2024-02-21T06:07:06;39.47;;;21.38;;
24567;SDS011;12731;52.182;8.716;2024-02-21T06:09:32;36.10;;;20.70;;
24567;SDS011;12731;52.182;8.716;2024-02-21T06:11:59;30.38;;;20.02;;
24567;SDS011;12731;52.182;8.716;2024-02-21T06:14:25;36.25;;;21.80;;
24567;SDS011;12731;52.182;8.716;2024-02-21T06:16:52;39.20;;;21.75;;
24567;SDS011;12731;52.182;8.716;2024-02-21T06:19:18;34.92;;;22.02;;
24567;SDS011;12731;52.182;8.716;2024-02-21T06:21:45;32.30;;;21.05;;
24567;SDS011;12731;52.182;8.716;2024-02-21T06:24:12;33.40;;;20.83;;
24567;SDS011;12731;52.182;8.716;2024-02-21T06:26:39;36.78;;;21.48;;
24567;SDS011;12731;52.182;8.716;2024-02-21T06:29:06;36.75;;;22.75;;
24567;SDS011;12731;52.182;8.716;2024-02-21T06:31:33;38.83;;;22.27;;
24567;SDS011;12731;52.182;8.716;2024-02-21T06:33:59;42.05;;;23.48;;
24567;SDS011;12731;52.182;8.716;2024-02-21T06:36:26;34.65;;;21.38;;
24567;SDS011;12731;52.182;8.716;2024-02-21T06:38:52;36.05;;;22.33;;
24567;SDS011;12731;52.182;8.716;2024-02-21T06:41:19;36.45;;;22.90;;
24567;SDS011;12731;52.182;8.716;2024-02-21T06:43:46;35.40;;;22.40;;
24567;SDS011;12731;52.182;8.716;2024-02-21T06:46:25;38.85;;;21.60;;
24567;SDS011;12731;52.182;8.716;2024-02-21T06:48:53;36.78;;;21.42;;
24567;SDS011;12731;52.182;8.716;2024-02-21T06:51:19;36.10;;;21.65;;
24567;SDS011;12731;52.182;8.716;2024-02-21T06:53:46;32.08;;;21.45;;
24567;SDS011;12731;52.182;8.716;2024-02-21T06:56:12;34.88;;;21.50;;
24567;SDS011;12731;52.182;8.716;2024-02-21T06:58:39;40.88;;;21.63;;
24567;SDS011;12731;52.182;8.716;2024-02-21T07:01:06;37.55;;;21.90;;
24567;SDS011;12731;52.182;8.716;2024-02-21T07:03:33;33.42;;;21.23;;
24567;SDS011;12731;52.182;8.716;2024-02-21T07:05:59;37.35;;;21.92;;
24567;SDS011;12731;52.182;8.716;2024-02-21T07:08:26;38.13;;;20.92;;
24567;SDS011;12731;52.182;8.716;2024-02-21T07:10:53;34.97;;;19.17;;
24567;SDS011;12731;52.182;8.716;2024-02-21T07:13:19;32.28;;;19.90;;
24567;SDS011;12731;52.182;8.716;2024-02-21T07:15:47;34.88;;;20.23;;
24567;SDS011;12731;52.182;8.716;2024-02-21T07:18:14;36.83;;;18.13;;
24567;SDS011;12731;52.182;8.716;2024-02-21T07:20:41;30.75;;;19.08;;
24567;SDS011;12731;52.182;8.716;2024-02-21T07:23:08;33.70;;;18.17;;
24567;SDS011;12731;52.182;8.716;2024-02-21T07:25:34;32.58;;;17.20;;
24567;SDS011;12731;52.182;8.716;2024-02-21T07:28:01;29.80;;;16.85;;
24567;SDS011;12731;52.182;8.716;2024-02-21T07:30:27;29.08;;;16.85;;
24567;SDS011;12731;52.182;8.716;2024-02-21T07:32:54;27.83;;;16.02;;
24567;SDS011;12731;52.182;8.716;2024-02-21T07:35:20;28.75;;;15.77;;
24567;SDS011;12731;52.182;8.716;2024-02-21T07:37:47;27.17;;;15.40;;
24567;SDS011;12731;52.182;8.716;2024-02-21T07:40:13;23.90;;;14.80;;
24567;SDS011;12731;52.182;8.716;2024-02-21T07:42:40;23.55;;;13.48;;
24567;SDS011;12731;52.182;8.716;2024-02-21T07:45:07;24.40;;;14.18;;
24567;SDS011;12731;52.182;8.716;2024-02-21T07:47:34;24.20;;;12.82;;
24567;SDS011;12731;52.182;8.716;2024-02-21T07:50:01;25.90;;;13.57;;
24567;SDS011;12731;52.182;8.716;2024-02-21T07:52:28;24.58;;;13.07;;
24567;SDS011;12731;52.182;8.716;2024-02-21T07:54:55;21.67;;;11.60;;
24567;SDS011;12731;52.182;8.716;2024-02-21T07:57:21;21.00;;;11.38;;
24567;SDS011;12731;52.182;8.716;2024-02-21T07:59:48;22.08;;;11.70;;
24567;SDS011;12731;52.182;8.716;2024-02-21T08:02:14;23.77;;;11.68;;
24567;SDS011;12731;52.182;8.716;2024-02-21T08:04:41;15.77;;;10.15;;
24567;SDS011;12731;52.182;8.716;2024-02-21T08:07:08;24.48;;;11.35;;
24567;SDS011;12731;52.182;8.716;2024-02-21T08:09:34;21.95;;;10.38;;
24567;SDS011;12731;52.182;8.716;2024-02-21T08:12:02;22.38;;;10.27;;
24567;SDS011;12731;52.182;8.716;2024-02-21T08:14:30;17.55;;;9.85;;
24567;SDS011;12731;52.182;8.716;2024-02-21T08:16:56;16.75;;;9.93;;
24567;SDS011;12731;52.182;8.716;2024-02-21T08:19:23;20.92;;;9.32;;
24567;SDS011;12731;52.182;8.716;2024-02-21T08:21:49;18.67;;;8.50;;
24567;SDS011;12731;52.182;8.716;2024-02-21T08:24:16;18.35;;;8.93;;
24567;SDS011;12731;52.182;8.716;2024-02-21T08:26:43;20.88;;;8.63;;
24567;SDS011;12731;52.182;8.716;2024-02-21T08:29:11;18.83;;;8.43;;
24567;SDS011;12731;52.182;8.716;2024-02-21T08:31:38;18.15;;;8.45;;
24567;SDS011;12731;52.182;8.716;2024-02-21T08:34:04;15.07;;;8.27;;
24567;SDS011;12731;52.182;8.716;2024-02-21T08:36:34;18.70;;;9.07;;
24567;SDS011;12731;52.182;8.716;2024-02-21T08:39:01;17.25;;;8.35;;
24567;SDS011;12731;52.182;8.716;2024-02-21T08:41:31;15.82;;;7.88;;
24567;SDS011;12731;52.182;8.716;2024-02-21T08:44:17;14.05;;;7.57;;
24567;SDS011;12731;52.182;8.716;2024-02-21T08:46:43;14.15;;;7.32;;
24567;SDS011;12731;52.182;8.716;2024-02-21T08:49:10;15.35;;;7.05;;
24567;SDS011;12731;52.182;8.716;2024-02-21T08:51:37;22.13;;;7.82;;
24567;SDS011;12731;52.182;8.716;2024-02-21T08:54:03;15.60;;;7.82;;
24567;SDS011;12731;52.182;8.716;2024-02-21T08:56:30;14.85;;;7.88;;
24567;SDS011;12731;52.182;8.716;2024-02-21T08:58:57;17.48;;;8.25;;
24567;SDS011;12731;52.182;8.716;2024-02-21T09:01:24;15.48;;;8.15;;
24567;SDS011;12731;52.182;8.716;2024-02-21T09:03:52;17.60;;;7.60;;
24567;SDS011;12731;52.182;8.716;2024-02-21T09:06:20;18.02;;;8.30;;
24567;SDS011;12731;52.182;8.716;2024-02-21T09:08:46;12.48;;;7.10;;
24567;SDS011;12731;52.182;8.716;2024-02-21T09:11:13;16.55;;;7.20;;
24567;SDS011;12731;52.182;8.716;2024-02-21T09:13:39;11.80;;;6.68;;
24567;SDS011;12731;52.182;8.716;2024-02-21T09:16:06;13.63;;;6.55;;
24567;SDS011;12731;52.182;8.716;2024-02-21T09:18:32;14.05;;;6.18;;
24567;SDS011;12731;52.182;8.716;2024-02-21T09:20:59;15.15;;;6.40;;
24567;SDS011;12731;52.182;8.716;2024-02-21T09:23:26;14.23;;;5.93;;
24567;SDS011;12731;52.182;8.716;2024-02-21T09:25:53;12.77;;;6.35;;
24567;SDS011;12731;52.182;8.716;2024-02-21T09:28:21;12.43;;;5.90;;
24567;SDS011;12731;52.182;8.716;2024-02-21T09:30:48;14.35;;;6.15;;
24567;SDS011;12731;52.182;8.716;2024-02-21T09:33:15;13.07;;;5.93;;
24567;SDS011;12731;52.182;8.716;2024-02-21T09:35:57;12.10;;;6.25;;
24567;SDS011;12731;52.182;8.716;2024-02-21T09:38:23;11.20;;;5.30;;
24567;SDS011;12731;52.182;8.716;2024-02-21T09:41:32;15.07;;;6.40;;
24567;SDS011;12731;52.182;8.716;2024-02-21T09:43:51;12.35;;;5.20;;
24567;SDS011;12731;52.182;8.716;2024-02-21T09:46:21;17.20;;;6.03;;
24567;SDS011;12731;52.182;8.716;2024-02-21T09:49:04;9.95;;;5.50;;
24567;SDS011;12731;52.182;8.716;2024-02-21T09:51:52;12.30;;;5.43;;
24567;SDS011;12731;52.182;8.716;2024-02-21T09:54:20;10.98;;;5.25;;
24567;SDS011;12731;52.182;8.716;2024-02-21T09:56:47;11.02;;;5.47;;
24567;SDS011;12731;52.182;8.716;2024-02-21T09:59:14;10.85;;;5.00;;
24567;SDS011;12731;52.182;8.716;2024-02-21T10:01:44;8.38;;;5.13;;
24567;SDS011;12731;52.182;8.716;2024-02-21T10:04:13;8.50;;;5.00;;
24567;SDS011;12731;52.182;8.716;2024-02-21T10:06:39;9.85;;;4.75;;
24567;SDS011;12731;52.182;8.716;2024-02-21T10:09:06;10.25;;;4.80;;
24567;SDS011;12731;52.182;8.716;2024-02-21T10:11:33;11.77;;;4.85;;
24567;SDS011;12731;52.182;8.716;2024-02-21T10:14:04;10.82;;;4.53;;
24567;SDS011;12731;52.182;8.716;2024-02-21T10:16:34;11.23;;;4.20;;
24567;SDS011;12731;52.182;8.716;2024-02-21T10:19:01;11.25;;;4.55;;
24567;SDS011;12731;52.182;8.716;2024-02-21T10:21:27;9.32;;;4.60;;
24567;SDS011;12731;52.182;8.716;2024-02-21T10:23:54;7.25;;;3.58;;
24567;SDS011;12731;52.182;8.716;2024-02-21T10:26:20;7.53;;;3.55;;
24567;SDS011;12731;52.182;8.716;2024-02-21T10:28:47;9.20;;;4.10;;
24567;SDS011;12731;52.182;8.716;2024-02-21T10:31:21;8.68;;;4.30;;
24567;SDS011;12731;52.182;8.716;2024-02-21T10:33:56;8.63;;;4.20;;
24567;SDS011;12731;52.182;8.716;2024-02-21T10:36:24;10.32;;;3.95;;
24567;SDS011;12731;52.182;8.716;2024-02-21T10:38:51;8.80;;;3.53;;
24567;SDS011;12731;52.182;8.716;2024-02-21T10:41:19;9.70;;;3.97;;
24567;SDS011;12731;52.182;8.716;2024-02-21T10:43:53;9.70;;;4.00;;
24567;SDS011;12731;52.182;8.716;2024-02-21T10:46:21;8.55;;;3.90;;
24567;SDS011;12731;52.182;8.716;2024-02-21T10:49:10;6.05;;;3.67;;
24567;SDS011;12731;52.182;8.716;2024-02-21T10:51:37;9.25;;;3.58;;
24567;SDS011;12731;52.182;8.716;2024-02-21T10:54:13;10.95;;;4.47;;
24567;SDS011;12731;52.182;8.716;2024-02-21T10:56:51;8.00;;;3.95;;
24567;SDS011;12731;52.182;8.716;2024-02-21T10:59:18;7.53;;;4.03;;
24567;SDS011;12731;52.182;8.716;2024-02-21T11:01:44;8.07;;;3.92;;
24567;SDS011;12731;52.182;8.716;2024-02-21T11:04:11;7.32;;;4.05;;
24567;SDS011;12731;52.182;8.716;2024-02-21T11:06:40;10.18;;;4.90;;
24567;SDS011;12731;52.182;8.716;2024-02-21T11:09:08;10.02;;;4.88;;
24567;SDS011;12731;52.182;8.716;2024-02-21T11:11:36;9.45;;;5.60;;
24567;SDS011;12731;52.182;8.716;2024-02-21T11:14:07;8.93;;;4.35;;
24567;SDS011;12731;52.182;8.716;2024-02-21T11:16:44;8.90;;;4.18;;
24567;SDS011;12731;52.182;8.716;2024-02-21T11:19:20;8.68;;;4.82;;
24567;SDS011;12731;52.182;8.716;2024-02-21T11:21:48;10.30;;;5.32;;
24567;SDS011;12731;52.182;8.716;2024-02-21T11:24:28;11.43;;;6.03;;
24567;SDS011;12731;52.182;8.716;2024-02-21T11:27:08;9.50;;;5.57;;
24567;SDS011;12731;52.182;8.716;2024-02-21T11:29:45;11.98;;;5.75;;
24567;SDS011;12731;52.182;8.716;2024-02-21T11:32:16;9.35;;;5.55;;
24567;SDS011;12731;52.182;8.716;2024-02-21T11:34:57;14.02;;;6.38;;
24567;SDS011;12731;52.182;8.716;2024-02-21T11:37:34;10.90;;;6.07;;
24567;SDS011;12731;52.182;8.716;2024-02-21T11:40:05;13.02;;;7.13;;
24567;SDS011;12731;52.182;8.716;2024-02-21T11:42:35;12.95;;;7.38;;
24567;SDS011;12731;52.182;8.716;2024-02-21T11:45:02;15.05;;;8.13;;
24567;SDS011;12731;52.182;8.716;2024-02-21T11:47:28;14.73;;;7.93;;
24567;SDS011;12731;52.182;8.716;2024-02-21T11:49:55;13.95;;;8.23;;
24567;SDS011;12731;52.182;8.716;2024-02-21T11:52:22;14.10;;;8.75;;
24567;SDS011;12731;52.182;8.716;2024-02-21T11:54:51;18.05;;;8.32;;
24567;SDS011;12731;52.182;8.716;2024-02-21T11:57:23;17.17;;;7.93;;
24567;SDS011;12731;52.182;8.716;2024-02-21T11:59:50;16.15;;;8.57;;
24567;SDS011;12731;52.182;8.716;2024-02-21T12:02:22;15.88;;;8.73;;
24567;SDS011;12731;52.182;8.716;2024-02-21T12:04:49;15.20;;;9.73;;
24567;SDS011;12731;52.182;8.716;2024-02-21T12:07:15;15.38;;;8.57;;
24567;SDS011;12731;52.182;8.716;2024-02-21T12:09:44;15.63;;;9.07;;
24567;SDS011;12731;52.182;8.716;2024-02-21T12:12:10;13.43;;;8.05;;
24567;SDS011;12731;52.182;8.716;2024-02-21T12:14:37;15.15;;;8.73;;
24567;SDS011;12731;52.182;8.716;2024-02-21T12:17:04;13.13;;;8.32;;
24567;SDS011;12731;52.182;8.716;2024-02-21T12:19:31;15.80;;;8.50;;
24567;SDS011;12731;52.182;8.716;2024-02-21T12:21:59;11.82;;;7.95;;
24567;SDS011;12731;52.182;8.716;2024-02-21T12:24:27;13.15;;;6.95;;
24567;SDS011;12731;52.182;8.716;2024-02-21T12:26:54;15.20;;;7.22;;
24567;SDS011;12731;52.182;8.716;2024-02-21T12:29:22;14.57;;;6.72;;
24567;SDS011;12731;52.182;8.716;2024-02-21T12:31:51;16.38;;;7.60;;
24567;SDS011;12731;52.182;8.716;2024-02-21T12:34:17;14.40;;;7.03;;
24567;SDS011;12731;52.182;8.716;2024-02-21T12:36:56;14.48;;;7.50;;
24567;SDS011;12731;52.182;8.716;2024-02-21T12:39:22;12.90;;;7.00;;
24567;SDS011;12731;52.182;8.716;2024-02-21T12:41:49;12.07;;;6.65;;
24567;SDS011;12731;52.182;8.716;2024-02-21T12:44:16;12.93;;;6.88;;
24567;SDS011;12731;52.182;8.716;2024-02-21T12:46:44;12.50;;;6.93;;
24567;SDS011;12731;52.182;8.716;2024-02-21T12:49:11;11.18;;;6.72;;
24567;SDS011;12731;52.182;8.716;2024-02-21T12:51:37;15.60;;;7.25;;
24567;SDS011;12731;52.182;8.716;2024-02-21T12:54:05;10.93;;;6.60;;
24567;SDS011;12731;52.182;8.716;2024-02-21T12:56:32;11.75;;;6.97;;
24567;SDS011;12731;52.182;8.716;2024-02-21T12:58:58;15.55;;;7.90;;
24567;SDS011;12731;52.182;8.716;2024-02-21T13:01:24;12.32;;;7.10;;
24567;SDS011;12731;52.182;8.716;2024-02-21T13:03:52;12.75;;;6.85;;
24567;SDS011;12731;52.182;8.716;2024-02-21T13:06:20;12.52;;;6.70;;
24567;SDS011;12731;52.182;8.716;2024-02-21T13:08:46;13.57;;;7.15;;
24567;SDS011;12731;52.182;8.716;2024-02-21T13:11:13;10.35;;;6.70;;
24567;SDS011;12731;52.182;8.716;2024-02-21T13:13:39;15.18;;;6.57;;
24567;SDS011;12731;52.182;8.716;2024-02-21T13:16:06;11.30;;;6.10;;
24567;SDS011;12731;52.182;8.716;2024-02-21T13:18:34;14.60;;;7.15;;
24567;SDS011;12731;52.182;8.716;2024-02-21T13:21:01;14.50;;;7.13;;
24567;SDS011;12731;52.182;8.716;2024-02-21T13:23:28;14.95;;;7.57;;
24567;SDS011;12731;52.182;8.716;2024-02-21T13:25:55;14.82;;;7.72;;
24567;SDS011;12731;52.182;8.716;2024-02-21T13:28:21;14.02;;;7.85;;
24567;SDS011;12731;52.182;8.716;2024-02-21T13:30:48;17.52;;;9.05;;
24567;SDS011;12731;52.182;8.716;2024-02-21T13:33:14;15.00;;;8.30;;
24567;SDS011;12731;52.182;8.716;2024-02-21T13:35:42;17.33;;;7.93;;
24567;SDS011;12731;52.182;8.716;2024-02-21T13:38:08;12.15;;;7.10;;
24567;SDS011;12731;52.182;8.716;2024-02-21T13:40:36;14.23;;;6.72;;
24567;SDS011;12731;52.182;8.716;2024-02-21T13:43:02;11.15;;;6.53;;
24567;SDS011;12731;52.182;8.716;2024-02-21T13:45:29;12.52;;;7.00;;
24567;SDS011;12731;52.182;8.716;2024-02-21T13:47:56;12.50;;;6.53;;
24567;SDS011;12731;52.182;8.716;2024-02-21T13:50:25;15.93;;;6.35;;
24567;SDS011;12731;52.182;8.716;2024-02-21T13:52:56;12.13;;;5.78;;
24567;SDS011;12731;52.182;8.716;2024-02-21T13:55:22;15.10;;;5.43;;
24567;SDS011;12731;52.182;8.716;2024-02-21T13:57:52;8.57;;;4.45;;
24567;SDS011;12731;52.182;8.716;2024-02-21T14:00:18;8.98;;;4.65;;
24567;SDS011;12731;52.182;8.716;2024-02-21T14:02:46;10.43;;;4.30;;
24567;SDS011;12731;52.182;8.716;2024-02-21T14:05:12;9.93;;;4.63;;
24567;SDS011;12731;52.182;8.716;2024-02-21T14:07:40;7.35;;;3.90;;
24567;SDS011;12731;52.182;8.716;2024-02-21T14:10:08;8.70;;;4.20;;
24567;SDS011;12731;52.182;8.716;2024-02-21T14:12:35;7.82;;;3.65;;
24567;SDS011;12731;52.182;8.716;2024-02-21T14:15:02;9.15;;;4.50;;
24567;SDS011;12731;52.182;8.716;2024-02-21T14:17:28;9.57;;;4.35;;
24567;SDS011;12731;52.182;8.716;2024-02-21T14:19:55;10.85;;;4.43;;
24567;SDS011;12731;52.182;8.716;2024-02-21T14:22:21;11.40;;;4.60;;
24567;SDS011;12731;52.182;8.716;2024-02-21T14:24:47;10.68;;;4.65;;
24567;SDS011;12731;52.182;8.716;2024-02-21T14:27:14;9.02;;;4.13;;
24567;SDS011;12731;52.182;8.716;2024-02-21T14:29:40;6.68;;;4.30;;
24567;SDS011;12731;52.182;8.716;2024-02-21T14:32:07;14.13;;;4.63;;